Station Historical Data
Daily Summary for June 26, 2012 Units:  Both    English   Metric
« Previous Day
Next Day »
Daily Weekly Monthly Yearly Custom
  High: Low: Average:
Temperature: 91.4 °F /  33.0 °C 68.5 °F /  20.3 °C 78.6 °F /  25.9 °C
Dew Point: 67.8 °F /  19.9 °C 45.5 °F /  7.5 °C 59 °F /  15 °C
Humidity: 92% 23% 55%
Wind Speed: 5mph /  8.0km/h - 1.2mph /  2km/h
Wind Gust: 7mph /  11.3km/h - -
Wind- - East
Pressure: 30 in /  1017.2 hPa 29.9 in /  1013.4 hPa -
Precipitation: 0 in /  0 mm    
Historical Graphs
 
 
Tabular Data for June 26, 2012
Time Temperature Dew Point Pressure Wind Wind Speed Wind Gust Humidity Rainfall Rate (Hourly) solar Conditions
00:09 77.2 °F /  25.1 °C 62.2 °F /  16.8 °C 30in /  1014.4hPa NE 5mph /  8.0km/h 7mph /  11.3km/h 60% 0in /  0.0mm 0.0 W/m2 SCT
00:19 76.1 °F /  24.5 °C 60.3 °F /  15.7 °C 30in /  1014.4hPa NE 2mph /  3.2km/h 6mph /  9.7km/h 58% 0in /  0.0mm 0.0 W/m2 SCT
00:29 77.4 °F /  25.2 °C 59.9 °F /  15.5 °C 30in /  1014.4hPa NE 2mph /  3.2km/h 4mph /  6.4km/h 55% 0in /  0.0mm 0.0 W/m2 SCT
00:39 78.3 °F /  25.7 °C 59.2 °F /  15.1 °C 30in /  1014.4hPa NE 3mph /  4.8km/h 6mph /  9.7km/h 52% 0in /  0.0mm 0.0 W/m2 SCT
00:49 79.2 °F /  26.2 °C 59 °F /  15.0 °C 30in /  1014.4hPa NE 2mph /  3.2km/h 5mph /  8.0km/h 50% 0in /  0.0mm 0.0 W/m2 SCT
00:59 79.5 °F /  26.4 °C 58.6 °F /  14.8 °C 30in /  1014.4hPa NE 2mph /  3.2km/h 4mph /  6.4km/h 49% 0in /  0.0mm 0.0 W/m2 SCT
01:09 79.2 °F /  26.2 °C 58.5 °F /  14.7 °C 29.9in /  1014.1hPa NE 2mph /  3.2km/h 3mph /  4.8km/h 49% 0in /  0.0mm 0.0 W/m2 SCT
01:19 79 °F /  26.1 °C 58.3 °F /  14.6 °C 30in /  1014.4hPa NE 1mph /  1.6km/h 3mph /  4.8km/h 49% 0in /  0.0mm 0.0 W/m2 SCT
01:29 79 °F /  26.1 °C 58.3 °F /  14.6 °C 30in /  1014.4hPa NE 1mph /  1.6km/h 4mph /  6.4km/h 49% 0in /  0.0mm 0.0 W/m2 SCT
01:39 78.6 °F /  25.9 °C 58.5 °F /  14.7 °C 30in /  1014.4hPa NE 1mph /  1.6km/h 3mph /  4.8km/h 50% 0in /  0.0mm 0.0 W/m2 SCT
01:49 78.4 °F /  25.8 °C 58.3 °F /  14.6 °C 29.9in /  1014.1hPa NE 1mph /  1.6km/h 3mph /  4.8km/h 50% 0in /  0.0mm 0.0 W/m2 SCT
01:59 78.6 °F /  25.9 °C 57.7 °F /  14.3 °C 29.9in /  1014.1hPa Calm   3mph /  4.8km/h 49% 0in /  0.0mm 0.0 W/m2 SCT
02:09 78.4 °F /  25.8 °C 58.3 °F /  14.6 °C 29.9in /  1014.1hPa Calm     50% 0in /  0.0mm 0.0 W/m2 SCT
02:19 77.7 °F /  25.4 °C 58.3 °F /  14.6 °C 29.9in /  1013.8hPa Calm   2mph /  3.2km/h 51% 0in /  0.0mm 0.0 W/m2 SCT
02:29 76.3 °F /  24.6 °C 60.1 °F /  15.6 °C 29.9in /  1013.8hPa NE 1mph /  1.6km/h 3mph /  4.8km/h 57% 0in /  0.0mm 0.0 W/m2 SCT
02:39 74.3 °F /  23.5 °C 60.1 °F /  15.6 °C 29.9in /  1013.8hPa NE 1mph /  1.6km/h 3mph /  4.8km/h 61% 0in /  0.0mm 0.0 W/m2 SCT
02:49 74.7 °F /  23.7 °C 59.9 °F /  15.5 °C 29.9in /  1013.8hPa Calm   3mph /  4.8km/h 60% 0in /  0.0mm 0.0 W/m2 SCT
02:59 74.1 °F /  23.4 °C 60.3 °F /  15.7 °C 29.9in /  1013.8hPa Calm   2mph /  3.2km/h 62% 0in /  0.0mm 0.0 W/m2 SCT
03:09 74.5 °F /  23.6 °C 60.3 °F /  15.7 °C 29.9in /  1013.8hPa NE 1mph /  1.6km/h 4mph /  6.4km/h 61% 0in /  0.0mm 0.0 W/m2 SCT
03:19 74.3 °F /  23.5 °C 60.4 °F /  15.8 °C 29.9in /  1013.4hPa Calm   2mph /  3.2km/h 62% 0in /  0.0mm 0.0 W/m2 SCT
03:29 74.1 °F /  23.4 °C 59.9 °F /  15.5 °C 29.9in /  1013.4hPa Calm   2mph /  3.2km/h 61% 0in /  0.0mm 0.0 W/m2 SCT
03:39 73.8 °F /  23.2 °C 60.3 °F /  15.7 °C 29.9in /  1013.8hPa Calm   3mph /  4.8km/h 63% 0in /  0.0mm 0.0 W/m2 SCT
03:49 73.8 °F /  23.2 °C 60.4 °F /  15.8 °C 29.9in /  1013.4hPa NE 1mph /  1.6km/h 3mph /  4.8km/h 63% 0in /  0.0mm 0.0 W/m2 SCT
03:59 73 °F /  22.8 °C 60.4 °F /  15.8 °C 29.9in /  1013.4hPa Calm   2mph /  3.2km/h 65% 0in /  0.0mm 0.0 W/m2 SCT
04:10 73 °F /  22.8 °C 61 °F /  16.1 °C 29.9in /  1013.4hPa Calm   1mph /  1.6km/h 66% 0in /  0.0mm 0.0 W/m2 SCT
04:19 72.9 °F /  22.7 °C 61 °F /  16.1 °C 29.9in /  1013.8hPa Calm   2mph /  3.2km/h 66% 0in /  0.0mm 0.0 W/m2 SCT
04:30 72.7 °F /  22.6 °C 61.3 °F /  16.3 °C 29.9in /  1013.8hPa NE 2mph /  3.2km/h 3mph /  4.8km/h 68% 0in /  0.0mm 0.0 W/m2 SCT
04:39 72.1 °F /  22.3 °C 61 °F /  16.1 °C 29.9in /  1013.8hPa NE 1mph /  1.6km/h 4mph /  6.4km/h 68% 0in /  0.0mm 0.0 W/m2 SCT
04:49 72.5 °F /  22.5 °C 60.1 °F /  15.6 °C 29.9in /  1013.8hPa NE 1mph /  1.6km/h 3mph /  4.8km/h 65% 0in /  0.0mm 0.0 W/m2 SCT
04:59 73.6 °F /  23.1 °C 59.7 °F /  15.4 °C 29.9in /  1013.8hPa Calm   3mph /  4.8km/h 62% 0in /  0.0mm 0.0 W/m2 SCT
05:09 72.9 °F /  22.7 °C 60.1 °F /  15.6 °C 29.9in /  1013.8hPa NE 1mph /  1.6km/h 3mph /  4.8km/h 64% 0in /  0.0mm 0.0 W/m2 SCT
05:19 72.3 °F /  22.4 °C 61.3 °F /  16.3 °C 29.9in /  1013.8hPa NE 2mph /  3.2km/h 3mph /  4.8km/h 68% 0in /  0.0mm 0.0 W/m2 SCT
05:29 72 °F /  22.2 °C 59.5 °F /  15.3 °C 29.9in /  1013.8hPa NE 2mph /  3.2km/h 6mph /  9.7km/h 65% 0in /  0.0mm 0.0 W/m2 SCT
05:39 73.6 °F /  23.1 °C 60.3 °F /  15.7 °C 29.9in /  1013.8hPa Calm   3mph /  4.8km/h 63% 0in /  0.0mm 0.0 W/m2 SCT
05:49 72.9 °F /  22.7 °C 60.3 °F /  15.7 °C 29.9in /  1013.8hPa NE 1mph /  1.6km/h 3mph /  4.8km/h 65% 0in /  0.0mm 0.0 W/m2 SCT
05:59 71.8 °F /  22.1 °C 61.9 °F /  16.6 °C 29.9in /  1014.1hPa Calm   3mph /  4.8km/h 71% 0in /  0.0mm 0.0 W/m2 SCT
06:09 71.1 °F /  21.7 °C 62.1 °F /  16.7 °C 29.9in /  1014.1hPa NE 1mph /  1.6km/h 3mph /  4.8km/h 73% 0in /  0.0mm 0.0 W/m2 SCT
06:19 70.7 °F /  21.5 °C 62.1 °F /  16.7 °C 29.9in /  1013.8hPa NE 1mph /  1.6km/h 3mph /  4.8km/h 74% 0in /  0.0mm 0.0 W/m2 SCT
06:29 70.3 °F /  21.3 °C 61.2 °F /  16.2 °C 29.9in /  1013.8hPa Calm   3mph /  4.8km/h 73% 0in /  0.0mm 0.0 W/m2 SCT
06:39 71.1 °F /  21.7 °C 60.4 °F /  15.8 °C 29.9in /  1013.8hPa NE 1mph /  1.6km/h 3mph /  4.8km/h 69% 0in /  0.0mm 0.0 W/m2 SCT
06:49 71.1 °F /  21.7 °C 61.9 °F /  16.6 °C 29.9in /  1013.8hPa Calm   2mph /  3.2km/h 73% 0in /  0.0mm 0.0 W/m2 SCT
06:59 70.5 °F /  21.4 °C 62.2 °F /  16.8 °C 29.9in /  1014.1hPa Calm   3mph /  4.8km/h 75% 0in /  0.0mm 0.0 W/m2 SCT
07:09 70.3 °F /  21.3 °C 62.4 °F /  16.9 °C 29.9in /  1014.1hPa Calm   2mph /  3.2km/h 76% 0in /  0.0mm 5.0 W/m2 SCT
07:19 70 °F /  21.1 °C 61.2 °F /  16.2 °C 29.9in /  1014.1hPa Calm   1mph /  1.6km/h 74% 0in /  0.0mm 11.0 W/m2 SCT
07:29 72 °F /  22.2 °C 59.5 °F /  15.3 °C 29.9in /  1014.1hPa Calm     65% 0in /  0.0mm 19.0 W/m2 SCT
07:39 72.5 °F /  22.5 °C 59.2 °F /  15.1 °C 29.9in /  1014.1hPa Calm   1mph /  1.6km/h 63% 0in /  0.0mm 30.0 W/m2 BKN
07:49 73 °F /  22.8 °C 59.4 °F /  15.2 °C 29.9in /  1013.8hPa NE 1mph /  1.6km/h 3mph /  4.8km/h 62% 0in /  0.0mm 46.0 W/m2 BKN
07:59 73 °F /  22.8 °C 59.7 °F /  15.4 °C 29.9in /  1013.8hPa Calm   3mph /  4.8km/h 63% 0in /  0.0mm 63.0 W/m2 BKN
08:09 71.8 °F /  22.1 °C 62.8 °F /  17.1 °C 29.9in /  1014.1hPa NE 2mph /  3.2km/h 3mph /  4.8km/h 73% 0in /  0.0mm 83.0 W/m2 BKN
08:19 71.1 °F /  21.7 °C 63.3 °F /  17.4 °C 29.9in /  1014.1hPa Calm   2mph /  3.2km/h 77% 0in /  0.0mm 100.0 W/m2 BKN
08:29 70.9 °F /  21.6 °C 63.7 °F /  17.6 °C 29.9in /  1014.1hPa Calm     78% 0in /  0.0mm 120.0 W/m2 BKN
08:39 71.1 °F /  21.7 °C 63.9 °F /  17.7 °C 29.9in /  1014.1hPa Calm   1mph /  1.6km/h 78% 0in /  0.0mm 144.0 W/m2 SCT
08:49 71.4 °F /  21.9 °C 64.2 °F /  17.9 °C 29.9in /  1014.1hPa Calm   2mph /  3.2km/h 78% 0in /  0.0mm 165.0 W/m2 SCT
08:59 72.3 °F /  22.4 °C 64.8 °F /  18.2 °C 29.9in /  1014.1hPa Calm   1mph /  1.6km/h 77% 0in /  0.0mm 192.0 W/m2 SCT
09:09 75 °F /  23.9 °C 62.1 °F /  16.7 °C 29.9in /  1014.1hPa Calm     64% 0in /  0.0mm 220.0 W/m2 SCT
09:19 75.7 °F /  24.3 °C 64.9 °F /  18.3 °C 30in /  1014.4hPa Calm   2mph /  3.2km/h 69% 0in /  0.0mm 246.0 W/m2 SCT
09:29 75.7 °F /  24.3 °C 61.9 °F /  16.6 °C 30in /  1014.4hPa NE 1mph /  1.6km/h 2mph /  3.2km/h 62% 0in /  0.0mm 274.0 W/m2 SCT
09:39 76.1 °F /  24.5 °C 62.1 °F /  16.7 °C 30in /  1014.8hPa NE 1mph /  1.6km/h 3mph /  4.8km/h 62% 0in /  0.0mm 309.0 W/m2 SCT
09:49 76.6 °F /  24.8 °C 63.5 °F /  17.5 °C 30in /  1014.8hPa NE 2mph /  3.2km/h 3mph /  4.8km/h 64% 0in /  0.0mm 338.0 W/m2 SCT
10:00 77.2 °F /  25.1 °C 62.6 °F /  17.0 °C 30in /  1014.4hPa NE 1mph /  1.6km/h 3mph /  4.8km/h 61% 0in /  0.0mm 371.0 W/m2 SCT
10:09 78.6 °F /  25.9 °C 63.7 °F /  17.6 °C 30in /  1014.4hPa NE 2mph /  3.2km/h 3mph /  4.8km/h 60% 0in /  0.0mm 404.0 W/m2 SCT
10:19 78.4 °F /  25.8 °C 61.3 °F /  16.3 °C 30in /  1014.8hPa NE 2mph /  3.2km/h 4mph /  6.4km/h 56% 0in /  0.0mm 427.0 W/m2 SCT
10:29 79.7 °F /  26.5 °C 62.1 °F /  16.7 °C 30in /  1014.8hPa NE 2mph /  3.2km/h 4mph /  6.4km/h 55% 0in /  0.0mm 462.0 W/m2 SCT
10:39 81.3 °F /  27.4 °C 60.3 °F /  15.7 °C 30in /  1014.8hPa Calm   4mph /  6.4km/h 49% 0in /  0.0mm 503.0 W/m2 FEW
10:49 83.8 °F /  28.8 °C 54.7 °F /  12.6 °C 30in /  1014.8hPa NE 2mph /  3.2km/h 6mph /  9.7km/h 37% 0in /  0.0mm 552.0 W/m2 FEW
10:59 83.7 °F /  28.7 °C 58.1 °F /  14.5 °C 30in /  1014.8hPa ENE 2mph /  3.2km/h 5mph /  8.0km/h 42% 0in /  0.0mm 561.0 W/m2 FEW
11:09 83.7 °F /  28.7 °C 54 °F /  12.2 °C 30in /  1014.8hPa ENE 3mph /  4.8km/h 6mph /  9.7km/h 36% 0in /  0.0mm 570.0 W/m2 FEW
11:20 83.1 °F /  28.4 °C 54.1 °F /  12.3 °C 30in /  1015.1hPa ENE 2mph /  3.2km/h 6mph /  9.7km/h 37% 0in /  0.0mm 603.0 W/m2 FEW
11:29 82.8 °F /  28.2 °C 56.7 °F /  13.7 °C 30in /  1015.1hPa Calm   5mph /  8.0km/h 41% 0in /  0.0mm 636.0 W/m2 FEW
11:39 83.7 °F /  28.7 °C 58.3 °F /  14.6 °C 30in /  1015.1hPa ENE 1mph /  1.6km/h 4mph /  6.4km/h 42% 0in /  0.0mm 659.0 W/m2 FEW
11:49 83.8 °F /  28.8 °C 59 °F /  15.0 °C 30in /  1015.5hPa ENE 2mph /  3.2km/h 3mph /  4.8km/h 43% 0in /  0.0mm 671.0 W/m2 FEW
11:59 84.4 °F /  29.1 °C 58.1 °F /  14.5 °C 30in /  1015.5hPa ENE 2mph /  3.2km/h 4mph /  6.4km/h 41% 0in /  0.0mm 687.0 W/m2 FEW
12:09 84 °F /  28.9 °C 57.9 °F /  14.4 °C 30in /  1015.5hPa ENE 1mph /  1.6km/h 4mph /  6.4km/h 41% 0in /  0.0mm 708.0 W/m2 FEW
12:19 85.3 °F /  29.6 °C 55.9 °F /  13.3 °C 30in /  1015.5hPa ENE 2mph /  3.2km/h 4mph /  6.4km/h 37% 0in /  0.0mm 735.0 W/m2 FEW
12:29 85.5 °F /  29.7 °C 55.4 °F /  13.0 °C 30in /  1015.5hPa ENE 3mph /  4.8km/h 4mph /  6.4km/h 36% 0in /  0.0mm 747.0 W/m2 FEW
12:39 85.3 °F /  29.6 °C 55.2 °F /  12.9 °C 30in /  1015.5hPa ENE 2mph /  3.2km/h 4mph /  6.4km/h 36% 0in /  0.0mm 777.0 W/m2 FEW
12:49 83.8 °F /  28.8 °C 54.9 °F /  12.7 °C 30in /  1015.5hPa ENE 1mph /  1.6km/h 4mph /  6.4km/h 37% 0in /  0.0mm 798.0 W/m2 FEW
12:59 85.1 °F /  29.5 °C 55.9 °F /  13.3 °C 30in /  1015.5hPa ENE 1mph /  1.6km/h 4mph /  6.4km/h 37% 0in /  0.0mm 805.0 W/m2 FEW
13:09 85.6 °F /  29.8 °C 55.6 °F /  13.1 °C 30in /  1015.5hPa ENE 5mph /  8.0km/h 6mph /  9.7km/h 36% 0in /  0.0mm 826.0 W/m2 FEW
13:19 83.8 °F /  28.8 °C 54.1 °F /  12.3 °C 30in /  1015.5hPa East 2mph /  3.2km/h 6mph /  9.7km/h 36% 0in /  0.0mm 849.0 W/m2 FEW
13:29 85.3 °F /  29.6 °C 52.9 °F /  11.6 °C 30in /  1015.5hPa East 3mph /  4.8km/h 5mph /  8.0km/h 33% 0in /  0.0mm 856.0 W/m2 FEW
13:39 86.2 °F /  30.1 °C 52.9 °F /  11.6 °C 30in /  1015.5hPa East 3mph /  4.8km/h 5mph /  8.0km/h 32% 0in /  0.0mm 872.0 W/m2 FEW
13:49 87.1 °F /  30.6 °C 52 °F /  11.1 °C 30in /  1015.5hPa East 2mph /  3.2km/h 6mph /  9.7km/h 30% 0in /  0.0mm 870.0 W/m2 FEW
13:59 89.2 °F /  31.8 °C 53.8 °F /  12.1 °C 30in /  1015.5hPa East 3mph /  4.8km/h 5mph /  8.0km/h 30% 0in /  0.0mm 900.0 W/m2 FEW
14:09 89.8 °F /  32.1 °C 52.3 °F /  11.3 °C 30in /  1015.5hPa East 3mph /  4.8km/h 5mph /  8.0km/h 28% 0in /  0.0mm 896.0 W/m2 FEW
14:19 89.2 °F /  31.8 °C 50 °F /  10.0 °C 30in /  1015.5hPa East 2mph /  3.2km/h 6mph /  9.7km/h 26% 0in /  0.0mm 888.0 W/m2 FEW
14:29 88.2 °F /  31.2 °C 46.8 °F /  8.2 °C 30in /  1015.1hPa Calm   5mph /  8.0km/h 24% 0in /  0.0mm 884.0 W/m2 FEW
14:39 90.7 °F /  32.6 °C 53.1 °F /  11.7 °C 30in /  1015.1hPa East 5mph /  8.0km/h 6mph /  9.7km/h 28% 0in /  0.0mm 907.0 W/m2 FEW
14:49 89.4 °F /  31.9 °C 47.8 °F /  8.8 °C 30in /  1015.1hPa East 3mph /  4.8km/h 5mph /  8.0km/h 24% 0in /  0.0mm 909.0 W/m2 FEW
14:59 88 °F /  31.1 °C 45.5 °F /  7.5 °C 30in /  1015.1hPa East 1mph /  1.6km/h 5mph /  8.0km/h 23% 0in /  0.0mm 895.0 W/m2 FEW
15:09 90 °F /  32.2 °C 48.4 °F /  9.1 °C 30in /  1015.1hPa East 3mph /  4.8km/h 5mph /  8.0km/h 24% 0in /  0.0mm 902.0 W/m2 FEW
15:19 90.9 °F /  32.7 °C 49.1 °F /  9.5 °C 30in /  1015.1hPa East 2mph /  3.2km/h 5mph /  8.0km/h 24% 0in /  0.0mm 916.0 W/m2 FEW
15:29 90 °F /  32.2 °C 48.4 °F /  9.1 °C 30in /  1015.1hPa East 2mph /  3.2km/h 5mph /  8.0km/h 24% 0in /  0.0mm 896.0 W/m2 FEW
15:39 91.4 °F /  33.0 °C 48.4 °F /  9.1 °C 30in /  1015.1hPa East 2mph /  3.2km/h 6mph /  9.7km/h 23% 0in /  0.0mm 896.0 W/m2 FEW
15:49 90.7 °F /  32.6 °C 50.2 °F /  10.1 °C 30in /  1015.1hPa ESE 2mph /  3.2km/h 6mph /  9.7km/h 25% 0in /  0.0mm 872.0 W/m2 FEW
15:59 90.5 °F /  32.5 °C 49.8 °F /  9.9 °C 30in /  1015.1hPa ESE 2mph /  3.2km/h 5mph /  8.0km/h 25% 0in /  0.0mm 851.0 W/m2 FEW
16:09 89.8 °F /  32.1 °C 49.3 °F /  9.6 °C 30in /  1015.1hPa ESE 1mph /  1.6km/h 5mph /  8.0km/h 25% 0in /  0.0mm 838.0 W/m2 FEW
16:19 90.7 °F /  32.6 °C 47.7 °F /  8.7 °C 30in /  1015.1hPa ESE 2mph /  3.2km/h 6mph /  9.7km/h 23% 0in /  0.0mm 819.0 W/m2 FEW
16:29 90.1 °F /  32.3 °C 47.5 °F /  8.6 °C 30in /  1015.1hPa ESE 2mph /  3.2km/h 6mph /  9.7km/h 23% 0in /  0.0mm 796.0 W/m2 FEW
16:39 90.5 °F /  32.5 °C 47.7 °F /  8.7 °C 30in /  1015.1hPa ESE 5mph /  8.0km/h 6mph /  9.7km/h 23% 0in /  0.0mm 768.0 W/m2 FEW
16:49 90.1 °F /  32.3 °C 50.7 °F /  10.4 °C 30in /  1015.1hPa ESE 1mph /  1.6km/h 5mph /  8.0km/h 26% 0in /  0.0mm 745.0 W/m2 FEW
16:59 88.9 °F /  31.6 °C 50.5 °F /  10.3 °C 30in /  1015.1hPa ESE 1mph /  1.6km/h 6mph /  9.7km/h 27% 0in /  0.0mm 722.0 W/m2 FEW
17:09 89.6 °F /  32.0 °C 52.2 °F /  11.2 °C 30in /  1015.1hPa ESE 3mph /  4.8km/h 6mph /  9.7km/h 28% 0in /  0.0mm 703.0 W/m2 CLR
17:19 88.9 °F /  31.6 °C 51.4 °F /  10.8 °C 30in /  1015.1hPa ESE 3mph /  4.8km/h 6mph /  9.7km/h 28% 0in /  0.0mm 689.0 W/m2 CLR
17:29 87.6 °F /  30.9 °C 48.6 °F /  9.2 °C 30in /  1015.1hPa ESE 2mph /  3.2km/h 7mph /  11.3km/h 26% 0in /  0.0mm 636.0 W/m2 CLR
17:39 87.3 °F /  30.7 °C 51.1 °F /  10.6 °C 30in /  1015.1hPa ESE 2mph /  3.2km/h 5mph /  8.0km/h 29% 0in /  0.0mm 613.0 W/m2 CLR
17:49 86.7 °F /  30.4 °C 56.7 °F /  13.7 °C 30in /  1015.1hPa ESE 1mph /  1.6km/h 5mph /  8.0km/h 36% 0in /  0.0mm 598.0 W/m2 CLR
17:59 83.5 °F /  28.6 °C 64.9 °F /  18.3 °C 30in /  1015.1hPa ESE 3mph /  4.8km/h 6mph /  9.7km/h 54% 0in /  0.0mm 563.0 W/m2 CLR
18:09 82.4 °F /  28.0 °C 63 °F /  17.2 °C 30in /  1015.1hPa ESE 3mph /  4.8km/h 5mph /  8.0km/h 52% 0in /  0.0mm 540.0 W/m2 CLR
18:19 82.6 °F /  28.1 °C 53.6 °F /  12.0 °C 30in /  1015.1hPa Calm   4mph /  6.4km/h 37% 0in /  0.0mm 501.0 W/m2 CLR
18:29 84.9 °F /  29.4 °C 59.2 °F /  15.1 °C 30in /  1015.1hPa ESE 1mph /  1.6km/h 4mph /  6.4km/h 42% 0in /  0.0mm 462.0 W/m2 CLR
18:39 85.3 °F /  29.6 °C 62.2 °F /  16.8 °C 30in /  1015.1hPa ESE 2mph /  3.2km/h 4mph /  6.4km/h 46% 0in /  0.0mm 434.0 W/m2 CLR
18:49 84.4 °F /  29.1 °C 57.4 °F /  14.1 °C 30in /  1015.1hPa ESE 1mph /  1.6km/h 4mph /  6.4km/h 40% 0in /  0.0mm 390.0 W/m2 CLR
18:59 83.8 °F /  28.8 °C 65.5 °F /  18.6 °C 30in /  1014.8hPa Calm   4mph /  6.4km/h 54% 0in /  0.0mm 364.0 W/m2 CLR
19:09 82.8 °F /  28.2 °C 59.2 °F /  15.1 °C 30in /  1014.8hPa Calm   3mph /  4.8km/h 45% 0in /  0.0mm 325.0 W/m2 CLR
19:19 81.5 °F /  27.5 °C 62.2 °F /  16.8 °C 30in /  1014.8hPa ESE 1mph /  1.6km/h 4mph /  6.4km/h 52% 0in /  0.0mm 301.0 W/m2 CLR
19:29 81.3 °F /  27.4 °C 59.2 °F /  15.1 °C 30in /  1015.1hPa Calm   2mph /  3.2km/h 47% 0in /  0.0mm 258.0 W/m2 CLR
19:39 81.3 °F /  27.4 °C 63.1 °F /  17.3 °C 30in /  1015.1hPa Calm   2mph /  3.2km/h 54% 0in /  0.0mm 225.0 W/m2 FEW
19:50 81.1 °F /  27.3 °C 66 °F /  18.9 °C 30in /  1015.1hPa ESE 1mph /  1.6km/h 3mph /  4.8km/h 60% 0in /  0.0mm 195.0 W/m2 FEW
19:59 77.9 °F /  25.5 °C 67.6 °F /  19.8 °C 30in /  1015.1hPa ESE 1mph /  1.6km/h 5mph /  8.0km/h 71% 0in /  0.0mm 162.0 W/m2 FEW
20:09 76.3 °F /  24.6 °C 67.5 °F /  19.7 °C 30in /  1015.5hPa ESE 2mph /  3.2km/h 6mph /  9.7km/h 74% 0in /  0.0mm 135.0 W/m2 FEW
20:19 75.6 °F /  24.2 °C 67.5 °F /  19.7 °C 30in /  1015.5hPa ESE 1mph /  1.6km/h 4mph /  6.4km/h 76% 0in /  0.0mm 111.0 W/m2 FEW
20:29 75.6 °F /  24.2 °C 67.8 °F /  19.9 °C 30in /  1015.5hPa Calm   3mph /  4.8km/h 77% 0in /  0.0mm 86.0 W/m2 FEW
20:39 75.9 °F /  24.4 °C 67.5 °F /  19.7 °C 30in /  1015.5hPa ESE 3mph /  4.8km/h 5mph /  8.0km/h 75% 0in /  0.0mm 65.0 W/m2 FEW
20:49 73.9 °F /  23.3 °C 64.8 °F /  18.2 °C 30in /  1015.8hPa ESE 2mph /  3.2km/h 6mph /  9.7km/h 73% 0in /  0.0mm 47.0 W/m2 FEW
20:59 73.6 °F /  23.1 °C 63.9 °F /  17.7 °C 30in /  1015.8hPa ESE 2mph /  3.2km/h 5mph /  8.0km/h 72% 0in /  0.0mm 30.0 W/m2 FEW
21:09 73.6 °F /  23.1 °C 63.1 °F /  17.3 °C 30in /  1015.8hPa ESE 1mph /  1.6km/h 4mph /  6.4km/h 70% 0in /  0.0mm 16.0 W/m2 FEW
21:19 73.2 °F /  22.9 °C 63 °F /  17.2 °C 30in /  1016.1hPa ESE 2mph /  3.2km/h 4mph /  6.4km/h 70% 0in /  0.0mm 7.0 W/m2 FEW
21:29 72.9 °F /  22.7 °C 62.1 °F /  16.7 °C 30in /  1016.5hPa ESE 2mph /  3.2km/h 3mph /  4.8km/h 69% 0in /  0.0mm 0.0 W/m2 FEW
21:39 72.7 °F /  22.6 °C 61.9 °F /  16.6 °C 30in /  1016.1hPa ESE 2mph /  3.2km/h 4mph /  6.4km/h 69% 0in /  0.0mm 0.0 W/m2 FEW
21:49 72.7 °F /  22.6 °C 61.9 °F /  16.6 °C 30in /  1016.1hPa ESE 2mph /  3.2km/h 4mph /  6.4km/h 69% 0in /  0.0mm 0.0 W/m2 FEW
21:59 72.9 °F /  22.7 °C 61.5 °F /  16.4 °C 30in /  1016.5hPa Calm   3mph /  4.8km/h 68% 0in /  0.0mm 0.0 W/m2 FEW
22:09 72.9 °F /  22.7 °C 61.7 °F /  16.5 °C 30in /  1016.5hPa Calm   1mph /  1.6km/h 68% 0in /  0.0mm 0.0 W/m2 FEW
22:19 72.3 °F /  22.4 °C 62.1 °F /  16.7 °C 30in /  1016.5hPa ESE 1mph /  1.6km/h 2mph /  3.2km/h 70% 0in /  0.0mm 0.0 W/m2 FEW
22:29 72.3 °F /  22.4 °C 61.5 °F /  16.4 °C 30in /  1016.8hPa Calm   3mph /  4.8km/h 69% 0in /  0.0mm 0.0 W/m2 FEW
22:39 72.3 °F /  22.4 °C 66.6 °F /  19.2 °C 30in /  1016.8hPa ESE 1mph /  1.6km/h 3mph /  4.8km/h 82% 0in /  0.0mm 0.0 W/m2 FEW
22:49 70.9 °F /  21.6 °C 66.7 °F /  19.3 °C 30in /  1016.8hPa Calm   3mph /  4.8km/h 87% 0in /  0.0mm 0.0 W/m2 FEW
22:59 70 °F /  21.1 °C 66.6 °F /  19.2 °C 30in /  1016.8hPa Calm   2mph /  3.2km/h 89% 0in /  0.0mm 0.0 W/m2 FEW
23:09 70 °F /  21.1 °C 67.3 °F /  19.6 °C 30in /  1016.8hPa ESE 3mph /  4.8km/h 4mph /  6.4km/h 91% 0in /  0.0mm 0.0 W/m2 FEW
23:19 69.8 °F /  21.0 °C 67.3 °F /  19.6 °C 30in /  1016.8hPa ESE 1mph /  1.6km/h 4mph /  6.4km/h 92% 0in /  0.0mm 0.0 W/m2 FEW
23:29 69.4 °F /  20.8 °C 66.9 °F /  19.4 °C 30in /  1016.8hPa ESE 1mph /  1.6km/h 3mph /  4.8km/h 92% 0in /  0.0mm 0.0 W/m2 FEW
23:39 68.9 °F /  20.5 °C 66 °F /  18.9 °C 30in /  1016.8hPa Calm   3mph /  4.8km/h 91% 0in /  0.0mm 0.0 W/m2 FEW
23:49 69.1 °F /  20.6 °C 66 °F /  18.9 °C 30in /  1017.2hPa Calm   2mph /  3.2km/h 90% 0in /  0.0mm 0.0 W/m2 FEW
23:59 68.5 °F /  20.3 °C 63.9 °F /  17.7 °C 30in /  1017.2hPa Calm   2mph /  3.2km/h 85% 0in /  0.0mm 0.0 W/m2 FEW
Sans Souci Weather
Compliments of Weather Underground

CWOP

www.awekas.at

Iberian Peninsular Network

Meteo PT

World Weather Websites

Weathercamsites.com